sensor_id;sensor_type;location;lat;lon;timestamp;P1;durP1;ratioP1;P2;durP2;ratioP2
57217;SDS011;43078;52.972;6.482;2023-03-19T00:01:23;18.67;;;16.38;;
57217;SDS011;43078;52.972;6.482;2023-03-19T00:03:49;21.10;;;18.55;;
57217;SDS011;43078;52.972;6.482;2023-03-19T00:06:15;18.65;;;15.18;;
57217;SDS011;43078;52.972;6.482;2023-03-19T00:08:41;18.73;;;15.32;;
57217;SDS011;43078;52.972;6.482;2023-03-19T00:11:07;22.10;;;18.02;;
57217;SDS011;43078;52.972;6.482;2023-03-19T00:13:34;25.10;;;18.73;;
57217;SDS011;43078;52.972;6.482;2023-03-19T00:15:59;19.23;;;16.98;;
57217;SDS011;43078;52.972;6.482;2023-03-19T00:18:26;23.50;;;16.92;;
57217;SDS011;43078;52.972;6.482;2023-03-19T00:20:51;18.23;;;16.13;;
57217;SDS011;43078;52.972;6.482;2023-03-19T00:23:17;17.63;;;15.73;;
57217;SDS011;43078;52.972;6.482;2023-03-19T00:25:42;19.17;;;17.15;;
57217;SDS011;43078;52.972;6.482;2023-03-19T00:28:08;20.17;;;16.60;;
57217;SDS011;43078;52.972;6.482;2023-03-19T00:30:34;19.70;;;17.60;;
57217;SDS011;43078;52.972;6.482;2023-03-19T00:33:00;18.55;;;15.70;;
57217;SDS011;43078;52.972;6.482;2023-03-19T00:35:26;20.27;;;16.80;;
57217;SDS011;43078;52.972;6.482;2023-03-19T00:37:52;18.63;;;16.55;;
57217;SDS011;43078;52.972;6.482;2023-03-19T00:40:19;18.25;;;15.93;;
57217;SDS011;43078;52.972;6.482;2023-03-19T00:42:44;18.35;;;16.08;;
57217;SDS011;43078;52.972;6.482;2023-03-19T00:45:10;18.25;;;15.95;;
57217;SDS011;43078;52.972;6.482;2023-03-19T00:47:37;18.83;;;16.55;;
57217;SDS011;43078;52.972;6.482;2023-03-19T00:50:03;18.83;;;15.40;;
57217;SDS011;43078;52.972;6.482;2023-03-19T00:52:30;19.63;;;16.25;;
57217;SDS011;43078;52.972;6.482;2023-03-19T00:54:56;17.20;;;15.40;;
57217;SDS011;43078;52.972;6.482;2023-03-19T00:57:21;19.63;;;16.25;;
57217;SDS011;43078;52.972;6.482;2023-03-19T00:59:47;17.08;;;15.30;;
57217;SDS011;43078;52.972;6.482;2023-03-19T01:02:13;17.02;;;15.23;;
57217;SDS011;43078;52.972;6.482;2023-03-19T01:04:39;19.00;;;15.68;;
57217;SDS011;43078;52.972;6.482;2023-03-19T01:07:05;18.05;;;15.40;;
57217;SDS011;43078;52.972;6.482;2023-03-19T01:09:30;17.52;;;15.05;;
57217;SDS011;43078;52.972;6.482;2023-03-19T01:11:56;17.48;;;15.32;;
57217;SDS011;43078;52.972;6.482;2023-03-19T01:14:22;17.70;;;14.95;;
57217;SDS011;43078;52.972;6.482;2023-03-19T01:16:48;17.75;;;15.23;;
57217;SDS011;43078;52.972;6.482;2023-03-19T01:19:14;18.05;;;13.57;;
57217;SDS011;43078;52.972;6.482;2023-03-19T01:21:40;17.58;;;14.18;;
57217;SDS011;43078;52.972;6.482;2023-03-19T01:24:10;18.13;;;14.07;;
57217;SDS011;43078;52.972;6.482;2023-03-19T01:26:37;16.23;;;13.77;;
57217;SDS011;43078;52.972;6.482;2023-03-19T01:29:02;17.50;;;14.63;;
57217;SDS011;43078;52.972;6.482;2023-03-19T01:31:28;15.07;;;13.20;;
57217;SDS011;43078;52.972;6.482;2023-03-19T01:33:54;16.70;;;14.05;;
57217;SDS011;43078;52.972;6.482;2023-03-19T01:36:20;16.60;;;13.00;;
57217;SDS011;43078;52.972;6.482;2023-03-19T01:38:46;16.67;;;13.07;;
57217;SDS011;43078;52.972;6.482;2023-03-19T01:41:12;15.38;;;12.77;;
57217;SDS011;43078;52.972;6.482;2023-03-19T01:43:38;13.68;;;10.23;;
57217;SDS011;43078;52.972;6.482;2023-03-19T01:46:04;15.60;;;11.98;;
57217;SDS011;43078;52.972;6.482;2023-03-19T01:48:50;14.82;;;10.20;;
57217;SDS011;43078;52.972;6.482;2023-03-19T01:51:20;14.68;;;10.02;;
57217;SDS011;43078;52.972;6.482;2023-03-19T01:53:54;13.25;;;10.90;;
57217;SDS011;43078;52.972;6.482;2023-03-19T01:58:57;11.27;;;8.90;;
57217;SDS011;43078;52.972;6.482;2023-03-19T02:01:28;15.50;;;11.52;;
57217;SDS011;43078;52.972;6.482;2023-03-19T02:03:58;11.60;;;8.88;;
57217;SDS011;43078;52.972;6.482;2023-03-19T02:06:24;12.82;;;10.50;;
57217;SDS011;43078;52.972;6.482;2023-03-19T02:08:52;13.93;;;10.82;;
57217;SDS011;43078;52.972;6.482;2023-03-19T02:11:19;11.85;;;8.93;;
57217;SDS011;43078;52.972;6.482;2023-03-19T02:13:44;13.95;;;9.95;;
57217;SDS011;43078;52.972;6.482;2023-03-19T02:16:11;11.10;;;8.02;;
57217;SDS011;43078;52.972;6.482;2023-03-19T02:18:37;11.40;;;8.43;;
57217;SDS011;43078;52.972;6.482;2023-03-19T02:21:06;14.82;;;8.70;;
57217;SDS011;43078;52.972;6.482;2023-03-19T02:26:19;10.88;;;8.23;;
57217;SDS011;43078;52.972;6.482;2023-03-19T02:28:48;14.88;;;9.10;;
57217;SDS011;43078;52.972;6.482;2023-03-19T02:31:16;9.15;;;6.90;;
57217;SDS011;43078;52.972;6.482;2023-03-19T02:33:42;9.55;;;6.20;;
57217;SDS011;43078;52.972;6.482;2023-03-19T02:36:09;11.35;;;10.02;;
57217;SDS011;43078;52.972;6.482;2023-03-19T02:38:42;9.40;;;5.88;;
57217;SDS011;43078;52.972;6.482;2023-03-19T02:41:09;12.60;;;8.50;;
57217;SDS011;43078;52.972;6.482;2023-03-19T02:43:36;10.80;;;8.23;;
57217;SDS011;43078;52.972;6.482;2023-03-19T02:46:03;10.57;;;8.57;;
57217;SDS011;43078;52.972;6.482;2023-03-19T02:48:32;8.27;;;6.00;;
57217;SDS011;43078;52.972;6.482;2023-03-19T02:50:58;12.18;;;6.72;;
57217;SDS011;43078;52.972;6.482;2023-03-19T02:53:24;9.93;;;6.65;;
57217;SDS011;43078;52.972;6.482;2023-03-19T02:55:50;9.05;;;5.68;;
57217;SDS011;43078;52.972;6.482;2023-03-19T02:58:16;10.65;;;8.32;;
57217;SDS011;43078;52.972;6.482;2023-03-19T03:00:41;10.75;;;8.48;;
57217;SDS011;43078;52.972;6.482;2023-03-19T03:03:07;8.50;;;5.70;;
57217;SDS011;43078;52.972;6.482;2023-03-19T03:05:33;8.52;;;5.97;;
57217;SDS011;43078;52.972;6.482;2023-03-19T03:07:59;10.98;;;6.45;;
57217;SDS011;43078;52.972;6.482;2023-03-19T03:10:25;9.25;;;6.38;;
57217;SDS011;43078;52.972;6.482;2023-03-19T03:12:51;8.30;;;5.00;;
57217;SDS011;43078;52.972;6.482;2023-03-19T03:15:17;7.57;;;4.72;;
57217;SDS011;43078;52.972;6.482;2023-03-19T03:17:43;7.78;;;6.03;;
57217;SDS011;43078;52.972;6.482;2023-03-19T03:20:10;8.07;;;4.30;;
57217;SDS011;43078;52.972;6.482;2023-03-19T03:22:37;7.75;;;5.07;;
57217;SDS011;43078;52.972;6.482;2023-03-19T03:25:03;7.78;;;4.40;;
57217;SDS011;43078;52.972;6.482;2023-03-19T03:27:30;9.95;;;6.70;;
57217;SDS011;43078;52.972;6.482;2023-03-19T03:29:56;7.28;;;5.22;;
57217;SDS011;43078;52.972;6.482;2023-03-19T03:32:22;7.55;;;5.55;;
57217;SDS011;43078;52.972;6.482;2023-03-19T03:34:48;7.20;;;5.07;;
57217;SDS011;43078;52.972;6.482;2023-03-19T03:37:14;9.02;;;6.55;;
57217;SDS011;43078;52.972;6.482;2023-03-19T03:39:41;6.35;;;4.43;;
57217;SDS011;43078;52.972;6.482;2023-03-19T03:42:07;5.72;;;4.00;;
57217;SDS011;43078;52.972;6.482;2023-03-19T03:44:32;8.00;;;4.90;;
57217;SDS011;43078;52.972;6.482;2023-03-19T03:46:58;6.05;;;3.72;;
57217;SDS011;43078;52.972;6.482;2023-03-19T03:49:24;7.05;;;4.50;;
57217;SDS011;43078;52.972;6.482;2023-03-19T03:51:49;6.25;;;3.65;;
57217;SDS011;43078;52.972;6.482;2023-03-19T03:54:15;8.35;;;3.97;;
57217;SDS011;43078;52.972;6.482;2023-03-19T03:56:41;6.75;;;4.43;;
57217;SDS011;43078;52.972;6.482;2023-03-19T03:59:07;6.53;;;4.05;;
57217;SDS011;43078;52.972;6.482;2023-03-19T04:01:33;6.75;;;5.07;;
57217;SDS011;43078;52.972;6.482;2023-03-19T04:03:59;6.18;;;3.67;;
57217;SDS011;43078;52.972;6.482;2023-03-19T04:06:25;5.57;;;3.78;;
57217;SDS011;43078;52.972;6.482;2023-03-19T04:08:51;9.05;;;4.00;;
57217;SDS011;43078;52.972;6.482;2023-03-19T04:11:18;7.68;;;4.22;;
57217;SDS011;43078;52.972;6.482;2023-03-19T04:13:44;5.88;;;4.10;;
57217;SDS011;43078;52.972;6.482;2023-03-19T04:16:10;7.47;;;3.92;;
57217;SDS011;43078;52.972;6.482;2023-03-19T04:18:36;7.15;;;4.80;;
57217;SDS011;43078;52.972;6.482;2023-03-19T04:21:02;6.30;;;3.80;;
57217;SDS011;43078;52.972;6.482;2023-03-19T04:23:29;5.90;;;3.55;;
57217;SDS011;43078;52.972;6.482;2023-03-19T04:25:58;6.50;;;4.20;;
57217;SDS011;43078;52.972;6.482;2023-03-19T04:28:25;6.57;;;4.25;;
57217;SDS011;43078;52.972;6.482;2023-03-19T04:30:51;6.53;;;3.60;;
57217;SDS011;43078;52.972;6.482;2023-03-19T04:33:17;6.47;;;4.30;;
57217;SDS011;43078;52.972;6.482;2023-03-19T04:35:43;7.97;;;4.90;;
57217;SDS011;43078;52.972;6.482;2023-03-19T04:38:08;7.68;;;4.57;;
57217;SDS011;43078;52.972;6.482;2023-03-19T04:40:34;7.57;;;4.57;;
57217;SDS011;43078;52.972;6.482;2023-03-19T04:43:00;7.38;;;4.88;;
57217;SDS011;43078;52.972;6.482;2023-03-19T04:45:26;7.25;;;4.80;;
57217;SDS011;43078;52.972;6.482;2023-03-19T04:47:52;6.93;;;4.65;;
57217;SDS011;43078;52.972;6.482;2023-03-19T04:50:18;8.23;;;4.70;;
57217;SDS011;43078;52.972;6.482;2023-03-19T04:52:43;7.40;;;4.68;;
57217;SDS011;43078;52.972;6.482;2023-03-19T04:55:09;6.78;;;4.50;;
57217;SDS011;43078;52.972;6.482;2023-03-19T04:57:35;8.65;;;5.70;;
57217;SDS011;43078;52.972;6.482;2023-03-19T05:00:01;6.53;;;4.53;;
57217;SDS011;43078;52.972;6.482;2023-03-19T05:02:27;7.20;;;4.85;;
57217;SDS011;43078;52.972;6.482;2023-03-19T05:04:52;7.50;;;4.25;;
57217;SDS011;43078;52.972;6.482;2023-03-19T05:07:18;6.75;;;4.65;;
57217;SDS011;43078;52.972;6.482;2023-03-19T05:09:44;6.40;;;4.57;;
57217;SDS011;43078;52.972;6.482;2023-03-19T05:12:10;9.27;;;5.38;;
57217;SDS011;43078;52.972;6.482;2023-03-19T05:14:36;6.45;;;4.40;;
57217;SDS011;43078;52.972;6.482;2023-03-19T05:17:02;6.85;;;4.88;;
57217;SDS011;43078;52.972;6.482;2023-03-19T05:19:28;7.25;;;4.63;;
57217;SDS011;43078;52.972;6.482;2023-03-19T05:21:54;8.73;;;5.20;;
57217;SDS011;43078;52.972;6.482;2023-03-19T05:24:21;8.13;;;4.30;;
57217;SDS011;43078;52.972;6.482;2023-03-19T05:26:47;6.15;;;4.57;;
57217;SDS011;43078;52.972;6.482;2023-03-19T05:29:13;6.88;;;4.45;;
57217;SDS011;43078;52.972;6.482;2023-03-19T05:31:39;6.40;;;4.40;;
57217;SDS011;43078;52.972;6.482;2023-03-19T05:34:05;6.88;;;4.43;;
57217;SDS011;43078;52.972;6.482;2023-03-19T05:36:31;6.57;;;4.35;;
57217;SDS011;43078;52.972;6.482;2023-03-19T05:38:57;5.85;;;4.05;;
57217;SDS011;43078;52.972;6.482;2023-03-19T05:41:24;6.03;;;4.03;;
57217;SDS011;43078;52.972;6.482;2023-03-19T05:43:50;5.85;;;4.15;;
57217;SDS011;43078;52.972;6.482;2023-03-19T05:46:16;7.70;;;4.68;;
57217;SDS011;43078;52.972;6.482;2023-03-19T05:48:41;6.47;;;4.22;;
57217;SDS011;43078;52.972;6.482;2023-03-19T05:51:07;5.82;;;4.15;;
57217;SDS011;43078;52.972;6.482;2023-03-19T05:53:33;5.95;;;4.57;;
57217;SDS011;43078;52.972;6.482;2023-03-19T05:56:00;6.97;;;4.18;;
57217;SDS011;43078;52.972;6.482;2023-03-19T05:58:26;7.65;;;4.35;;
57217;SDS011;43078;52.972;6.482;2023-03-19T06:00:55;6.15;;;4.35;;
57217;SDS011;43078;52.972;6.482;2023-03-19T06:03:24;6.80;;;4.18;;
57217;SDS011;43078;52.972;6.482;2023-03-19T06:06:12;6.72;;;4.20;;
57217;SDS011;43078;52.972;6.482;2023-03-19T06:08:38;6.22;;;4.60;;
57217;SDS011;43078;52.972;6.482;2023-03-19T06:11:07;6.13;;;4.40;;
57217;SDS011;43078;52.972;6.482;2023-03-19T06:13:40;5.57;;;3.85;;
57217;SDS011;43078;52.972;6.482;2023-03-19T06:16:11;6.20;;;4.18;;
57217;SDS011;43078;52.972;6.482;2023-03-19T06:19:18;7.25;;;4.07;;
57217;SDS011;43078;52.972;6.482;2023-03-19T06:21:59;6.15;;;4.43;;
57217;SDS011;43078;52.972;6.482;2023-03-19T06:24:25;6.93;;;4.82;;
57217;SDS011;43078;52.972;6.482;2023-03-19T06:26:57;8.52;;;5.28;;
57217;SDS011;43078;52.972;6.482;2023-03-19T06:29:23;9.00;;;4.93;;
57217;SDS011;43078;52.972;6.482;2023-03-19T06:31:52;7.68;;;5.32;;
57217;SDS011;43078;52.972;6.482;2023-03-19T06:35:09;8.27;;;5.28;;
57217;SDS011;43078;52.972;6.482;2023-03-19T06:37:35;7.10;;;5.40;;
57217;SDS011;43078;52.972;6.482;2023-03-19T06:40:01;8.88;;;5.88;;
57217;SDS011;43078;52.972;6.482;2023-03-19T06:42:29;7.20;;;4.40;;
57217;SDS011;43078;52.972;6.482;2023-03-19T06:44:55;9.10;;;5.75;;
57217;SDS011;43078;52.972;6.482;2023-03-19T06:47:27;8.57;;;5.30;;
57217;SDS011;43078;52.972;6.482;2023-03-19T06:50:07;8.07;;;6.00;;
57217;SDS011;43078;52.972;6.482;2023-03-19T06:52:34;9.20;;;5.25;;
57217;SDS011;43078;52.972;6.482;2023-03-19T06:55:10;7.72;;;6.05;;
57217;SDS011;43078;52.972;6.482;2023-03-19T06:57:36;7.55;;;5.28;;
57217;SDS011;43078;52.972;6.482;2023-03-19T07:00:02;10.15;;;5.85;;
57217;SDS011;43078;52.972;6.482;2023-03-19T07:02:29;10.57;;;7.03;;
57217;SDS011;43078;52.972;6.482;2023-03-19T07:04:55;9.20;;;5.97;;
57217;SDS011;43078;52.972;6.482;2023-03-19T07:07:21;9.38;;;6.22;;
57217;SDS011;43078;52.972;6.482;2023-03-19T07:09:46;9.25;;;6.28;;
57217;SDS011;43078;52.972;6.482;2023-03-19T07:12:12;8.35;;;6.43;;
57217;SDS011;43078;52.972;6.482;2023-03-19T07:14:37;11.23;;;7.43;;
57217;SDS011;43078;52.972;6.482;2023-03-19T07:17:03;9.25;;;7.07;;
57217;SDS011;43078;52.972;6.482;2023-03-19T07:19:29;10.93;;;7.80;;
57217;SDS011;43078;52.972;6.482;2023-03-19T07:21:54;8.43;;;6.70;;
57217;SDS011;43078;52.972;6.482;2023-03-19T07:24:20;10.45;;;7.95;;
57217;SDS011;43078;52.972;6.482;2023-03-19T07:26:46;10.07;;;6.65;;
57217;SDS011;43078;52.972;6.482;2023-03-19T07:29:11;11.43;;;8.30;;
57217;SDS011;43078;52.972;6.482;2023-03-19T07:31:37;11.25;;;8.77;;
57217;SDS011;43078;52.972;6.482;2023-03-19T07:34:03;12.43;;;7.22;;
57217;SDS011;43078;52.972;6.482;2023-03-19T07:36:29;10.93;;;8.30;;
57217;SDS011;43078;52.972;6.482;2023-03-19T07:38:55;13.02;;;8.35;;
57217;SDS011;43078;52.972;6.482;2023-03-19T07:41:21;9.35;;;7.55;;
57217;SDS011;43078;52.972;6.482;2023-03-19T07:43:47;13.30;;;9.13;;
57217;SDS011;43078;52.972;6.482;2023-03-19T07:46:13;12.25;;;9.20;;
57217;SDS011;43078;52.972;6.482;2023-03-19T07:48:39;12.07;;;9.63;;
57217;SDS011;43078;52.972;6.482;2023-03-19T07:51:05;14.57;;;10.23;;
57217;SDS011;43078;52.972;6.482;2023-03-19T07:53:31;14.02;;;9.10;;
57217;SDS011;43078;52.972;6.482;2023-03-19T07:55:56;11.57;;;8.77;;
57217;SDS011;43078;52.972;6.482;2023-03-19T07:58:22;11.40;;;9.38;;
57217;SDS011;43078;52.972;6.482;2023-03-19T08:00:48;11.02;;;9.00;;
57217;SDS011;43078;52.972;6.482;2023-03-19T08:03:14;12.30;;;9.70;;
57217;SDS011;43078;52.972;6.482;2023-03-19T08:05:40;12.10;;;9.60;;
57217;SDS011;43078;52.972;6.482;2023-03-19T08:08:05;13.38;;;8.82;;
57217;SDS011;43078;52.972;6.482;2023-03-19T08:10:31;12.27;;;9.15;;
57217;SDS011;43078;52.972;6.482;2023-03-19T08:12:57;12.73;;;9.55;;
57217;SDS011;43078;52.972;6.482;2023-03-19T08:15:22;14.32;;;10.07;;
57217;SDS011;43078;52.972;6.482;2023-03-19T08:17:48;15.43;;;9.68;;
57217;SDS011;43078;52.972;6.482;2023-03-19T08:20:20;13.67;;;10.17;;
57217;SDS011;43078;52.972;6.482;2023-03-19T08:22:47;10.93;;;9.60;;
57217;SDS011;43078;52.972;6.482;2023-03-19T08:25:14;10.75;;;9.18;;
57217;SDS011;43078;52.972;6.482;2023-03-19T08:27:40;13.15;;;9.77;;
57217;SDS011;43078;52.972;6.482;2023-03-19T08:30:06;12.80;;;10.02;;
57217;SDS011;43078;52.972;6.482;2023-03-19T08:32:33;14.15;;;10.35;;
57217;SDS011;43078;52.972;6.482;2023-03-19T08:34:59;13.15;;;10.07;;
57217;SDS011;43078;52.972;6.482;2023-03-19T08:37:25;12.65;;;9.80;;
57217;SDS011;43078;52.972;6.482;2023-03-19T08:39:51;13.93;;;10.13;;
57217;SDS011;43078;52.972;6.482;2023-03-19T08:42:17;11.70;;;9.45;;
57217;SDS011;43078;52.972;6.482;2023-03-19T08:44:43;13.90;;;9.77;;
57217;SDS011;43078;52.972;6.482;2023-03-19T08:47:09;11.60;;;9.50;;
57217;SDS011;43078;52.972;6.482;2023-03-19T08:49:35;12.82;;;10.13;;
57217;SDS011;43078;52.972;6.482;2023-03-19T08:52:01;11.13;;;9.75;;
57217;SDS011;43078;52.972;6.482;2023-03-19T08:54:26;14.15;;;10.32;;
57217;SDS011;43078;52.972;6.482;2023-03-19T08:56:52;12.88;;;11.02;;
57217;SDS011;43078;52.972;6.482;2023-03-19T08:59:18;14.95;;;11.13;;
57217;SDS011;43078;52.972;6.482;2023-03-19T09:01:43;13.45;;;10.88;;
57217;SDS011;43078;52.972;6.482;2023-03-19T09:04:09;12.82;;;10.57;;
57217;SDS011;43078;52.972;6.482;2023-03-19T09:06:35;15.45;;;10.43;;
57217;SDS011;43078;52.972;6.482;2023-03-19T09:09:00;15.43;;;10.60;;
57217;SDS011;43078;52.972;6.482;2023-03-19T09:11:26;14.50;;;10.88;;
57217;SDS011;43078;52.972;6.482;2023-03-19T09:13:52;14.15;;;10.85;;
57217;SDS011;43078;52.972;6.482;2023-03-19T09:16:17;14.98;;;10.75;;
57217;SDS011;43078;52.972;6.482;2023-03-19T09:18:43;13.75;;;10.25;;
57217;SDS011;43078;52.972;6.482;2023-03-19T09:21:09;12.48;;;9.60;;
57217;SDS011;43078;52.972;6.482;2023-03-19T09:23:35;11.88;;;9.85;;
57217;SDS011;43078;52.972;6.482;2023-03-19T09:26:00;14.60;;;10.82;;
57217;SDS011;43078;52.972;6.482;2023-03-19T09:28:26;12.88;;;10.07;;
57217;SDS011;43078;52.972;6.482;2023-03-19T09:30:52;12.02;;;10.18;;
57217;SDS011;43078;52.972;6.482;2023-03-19T09:33:18;13.23;;;9.80;;
57217;SDS011;43078;52.972;6.482;2023-03-19T09:35:49;10.18;;;8.98;;
57217;SDS011;43078;52.972;6.482;2023-03-19T09:38:22;11.63;;;9.25;;
57217;SDS011;43078;52.972;6.482;2023-03-19T09:40:48;11.43;;;8.75;;
57217;SDS011;43078;52.972;6.482;2023-03-19T09:43:33;13.75;;;9.25;;
57217;SDS011;43078;52.972;6.482;2023-03-19T09:46:06;13.00;;;9.70;;
57217;SDS011;43078;52.972;6.482;2023-03-19T09:48:46;13.05;;;9.63;;
57217;SDS011;43078;52.972;6.482;2023-03-19T09:51:15;11.27;;;9.65;;
57217;SDS011;43078;52.972;6.482;2023-03-19T09:56:14;14.77;;;9.65;;
57217;SDS011;43078;52.972;6.482;2023-03-19T09:58:40;12.57;;;9.48;;
57217;SDS011;43078;52.972;6.482;2023-03-19T10:01:10;12.55;;;9.95;;
57217;SDS011;43078;52.972;6.482;2023-03-19T10:04:00;12.57;;;9.43;;
57217;SDS011;43078;52.972;6.482;2023-03-19T10:06:29;12.13;;;9.38;;
57217;SDS011;43078;52.972;6.482;2023-03-19T10:11:45;13.00;;;9.93;;
57217;SDS011;43078;52.972;6.482;2023-03-19T10:17:14;12.88;;;9.73;;
57217;SDS011;43078;52.972;6.482;2023-03-19T10:19:48;11.68;;;9.52;;
57217;SDS011;43078;52.972;6.482;2023-03-19T10:22:20;11.60;;;9.67;;
57217;SDS011;43078;52.972;6.482;2023-03-19T10:24:51;13.38;;;10.02;;
57217;SDS011;43078;52.972;6.482;2023-03-19T10:27:21;11.93;;;9.45;;
57217;SDS011;43078;52.972;6.482;2023-03-19T10:29:50;13.85;;;9.55;;
57217;SDS011;43078;52.972;6.482;2023-03-19T10:34:52;13.07;;;10.32;;
57217;SDS011;43078;52.972;6.482;2023-03-19T10:37:22;13.05;;;10.30;;
57217;SDS011;43078;52.972;6.482;2023-03-19T10:39:51;11.93;;;10.07;;
57217;SDS011;43078;52.972;6.482;2023-03-19T10:45:03;12.45;;;10.57;;
57217;SDS011;43078;52.972;6.482;2023-03-19T10:47:50;12.82;;;10.98;;
57217;SDS011;43078;52.972;6.482;2023-03-19T10:50:18;16.02;;;10.93;;
57217;SDS011;43078;52.972;6.482;2023-03-19T10:52:51;12.63;;;10.35;;
57217;SDS011;43078;52.972;6.482;2023-03-19T10:55:25;12.25;;;10.82;;
57217;SDS011;43078;52.972;6.482;2023-03-19T10:58:01;13.60;;;11.57;;
57217;SDS011;43078;52.972;6.482;2023-03-19T11:00:40;15.52;;;11.27;;
57217;SDS011;43078;52.972;6.482;2023-03-19T11:03:26;12.63;;;11.10;;
57217;SDS011;43078;52.972;6.482;2023-03-19T11:06:03;14.75;;;11.57;;
57217;SDS011;43078;52.972;6.482;2023-03-19T11:08:37;12.75;;;11.23;;
57217;SDS011;43078;52.972;6.482;2023-03-19T11:11:03;15.75;;;12.57;;
57217;SDS011;43078;52.972;6.482;2023-03-19T11:13:29;13.85;;;12.27;;
57217;SDS011;43078;52.972;6.482;2023-03-19T11:15:58;14.80;;;12.10;;
57217;SDS011;43078;52.972;6.482;2023-03-19T11:18:29;14.98;;;12.07;;
57217;SDS011;43078;52.972;6.482;2023-03-19T11:21:05;13.75;;;11.63;;
57217;SDS011;43078;52.972;6.482;2023-03-19T11:23:39;14.65;;;12.07;;
57217;SDS011;43078;52.972;6.482;2023-03-19T11:26:05;15.98;;;12.48;;
57217;SDS011;43078;52.972;6.482;2023-03-19T11:28:31;17.75;;;13.68;;
57217;SDS011;43078;52.972;6.482;2023-03-19T11:31:07;14.52;;;12.60;;
57217;SDS011;43078;52.972;6.482;2023-03-19T11:36:30;16.33;;;14.27;;
57217;SDS011;43078;52.972;6.482;2023-03-19T11:39:20;16.92;;;14.25;;
57217;SDS011;43078;52.972;6.482;2023-03-19T11:42:33;16.23;;;13.73;;
57217;SDS011;43078;52.972;6.482;2023-03-19T11:44:52;15.98;;;13.02;;
57217;SDS011;43078;52.972;6.482;2023-03-19T11:47:24;15.93;;;13.13;;
57217;SDS011;43078;52.972;6.482;2023-03-19T11:50:14;21.52;;;16.17;;
57217;SDS011;43078;52.972;6.482;2023-03-19T11:55:30;15.13;;;13.40;;
57217;SDS011;43078;52.972;6.482;2023-03-19T11:58:31;16.85;;;13.82;;
57217;SDS011;43078;52.972;6.482;2023-03-19T12:01:17;20.00;;;15.25;;
57217;SDS011;43078;52.972;6.482;2023-03-19T12:06:53;15.95;;;12.55;;
57217;SDS011;43078;52.972;6.482;2023-03-19T12:10:02;15.40;;;12.45;;
57217;SDS011;43078;52.972;6.482;2023-03-19T12:21:25;15.27;;;12.57;;
57217;SDS011;43078;52.972;6.482;2023-03-19T12:24:18;16.95;;;13.35;;
57217;SDS011;43078;52.972;6.482;2023-03-19T12:27:13;16.92;;;12.65;;
57217;SDS011;43078;52.972;6.482;2023-03-19T12:30:11;16.38;;;12.13;;
57217;SDS011;43078;52.972;6.482;2023-03-19T12:35:20;14.32;;;11.82;;
57217;SDS011;43078;52.972;6.482;2023-03-19T12:37:55;14.93;;;12.00;;
57217;SDS011;43078;52.972;6.482;2023-03-19T12:40:46;16.25;;;12.68;;
57217;SDS011;43078;52.972;6.482;2023-03-19T12:43:17;17.13;;;12.80;;
57217;SDS011;43078;52.972;6.482;2023-03-19T12:45:50;16.90;;;13.70;;
57217;SDS011;43078;52.972;6.482;2023-03-19T12:48:38;18.58;;;15.65;;
57217;SDS011;43078;52.972;6.482;2023-03-19T12:51:10;20.45;;;14.75;;
57217;SDS011;43078;52.972;6.482;2023-03-19T12:54:12;16.70;;;13.45;;
57217;SDS011;43078;52.972;6.482;2023-03-19T13:00:40;17.05;;;13.02;;
57217;SDS011;43078;52.972;6.482;2023-03-19T13:04:18;16.58;;;13.02;;
57217;SDS011;43078;52.972;6.482;2023-03-19T13:09:24;17.40;;;13.27;;
57217;SDS011;43078;52.972;6.482;2023-03-19T13:12:04;16.88;;;12.52;;
57217;SDS011;43078;52.972;6.482;2023-03-19T13:14:45;14.70;;;12.88;;
57217;SDS011;43078;52.972;6.482;2023-03-19T13:23:16;15.15;;;12.52;;
57217;SDS011;43078;52.972;6.482;2023-03-19T13:25:56;15.88;;;13.07;;
57217;SDS011;43078;52.972;6.482;2023-03-19T13:28:26;16.92;;;12.60;;
57217;SDS011;43078;52.972;6.482;2023-03-19T13:31:04;15.60;;;12.90;;
57217;SDS011;43078;52.972;6.482;2023-03-19T13:33:36;15.20;;;12.85;;
57217;SDS011;43078;52.972;6.482;2023-03-19T13:36:03;15.65;;;13.05;;
57217;SDS011;43078;52.972;6.482;2023-03-19T13:38:44;16.23;;;12.80;;
57217;SDS011;43078;52.972;6.482;2023-03-19T13:43:59;16.98;;;13.38;;
57217;SDS011;43078;52.972;6.482;2023-03-19T13:46:45;19.52;;;14.93;;
57217;SDS011;43078;52.972;6.482;2023-03-19T13:54:35;21.38;;;15.45;;
57217;SDS011;43078;52.972;6.482;2023-03-19T13:57:03;22.15;;;15.80;;
57217;SDS011;43078;52.972;6.482;2023-03-19T13:59:40;21.30;;;15.73;;
57217;SDS011;43078;52.972;6.482;2023-03-19T14:07:21;26.15;;;19.30;;
57217;SDS011;43078;52.972;6.482;2023-03-19T14:12:33;25.75;;;18.80;;
57217;SDS011;43078;52.972;6.482;2023-03-19T14:15:03;26.80;;;19.52;;
57217;SDS011;43078;52.972;6.482;2023-03-19T14:22:55;26.98;;;19.33;;
57217;SDS011;43078;52.972;6.482;2023-03-19T14:25:25;28.92;;;20.63;;
57217;SDS011;43078;52.972;6.482;2023-03-19T14:27:59;27.27;;;19.13;;
57217;SDS011;43078;52.972;6.482;2023-03-19T14:30:36;29.73;;;20.55;;
57217;SDS011;43078;52.972;6.482;2023-03-19T14:33:05;26.60;;;20.13;;
57217;SDS011;43078;52.972;6.482;2023-03-19T14:35:40;28.20;;;18.90;;
57217;SDS011;43078;52.972;6.482;2023-03-19T14:40:59;26.83;;;18.88;;
57217;SDS011;43078;52.972;6.482;2023-03-19T14:49:06;28.23;;;19.10;;
57217;SDS011;43078;52.972;6.482;2023-03-19T14:57:35;28.50;;;18.20;;
57217;SDS011;43078;52.972;6.482;2023-03-19T15:00:01;28.83;;;17.58;;
57217;SDS011;43078;52.972;6.482;2023-03-19T15:02:35;29.75;;;17.88;;
57217;SDS011;43078;52.972;6.482;2023-03-19T15:05:03;30.27;;;18.35;;
57217;SDS011;43078;52.972;6.482;2023-03-19T15:07:36;27.67;;;17.58;;
57217;SDS011;43078;52.972;6.482;2023-03-19T15:10:05;26.27;;;15.82;;
57217;SDS011;43078;52.972;6.482;2023-03-19T15:12:47;24.17;;;15.25;;
57217;SDS011;43078;52.972;6.482;2023-03-19T15:15:37;27.67;;;16.40;;
57217;SDS011;43078;52.972;6.482;2023-03-19T15:18:09;27.33;;;16.77;;
57217;SDS011;43078;52.972;6.482;2023-03-19T15:20:37;27.42;;;17.08;;
57217;SDS011;43078;52.972;6.482;2023-03-19T15:23:07;31.63;;;18.55;;
57217;SDS011;43078;52.972;6.482;2023-03-19T15:25:46;31.17;;;19.60;;
57217;SDS011;43078;52.972;6.482;2023-03-19T15:28:16;28.35;;;17.55;;
57217;SDS011;43078;52.972;6.482;2023-03-19T15:30:43;30.23;;;18.25;;
57217;SDS011;43078;52.972;6.482;2023-03-19T15:33:19;30.40;;;18.17;;
57217;SDS011;43078;52.972;6.482;2023-03-19T15:35:51;28.30;;;17.58;;
57217;SDS011;43078;52.972;6.482;2023-03-19T15:38:22;31.52;;;18.17;;
57217;SDS011;43078;52.972;6.482;2023-03-19T15:40:51;32.55;;;18.77;;
57217;SDS011;43078;52.972;6.482;2023-03-19T15:43:17;30.33;;;18.55;;
57217;SDS011;43078;52.972;6.482;2023-03-19T15:45:44;29.08;;;17.85;;
57217;SDS011;43078;52.972;6.482;2023-03-19T15:48:19;28.48;;;18.13;;
57217;SDS011;43078;52.972;6.482;2023-03-19T15:50:49;31.65;;;19.23;;
57217;SDS011;43078;52.972;6.482;2023-03-19T15:53:21;29.17;;;17.38;;
57217;SDS011;43078;52.972;6.482;2023-03-19T15:55:49;26.95;;;17.63;;
57217;SDS011;43078;52.972;6.482;2023-03-19T15:58:24;29.33;;;18.30;;
57217;SDS011;43078;52.972;6.482;2023-03-19T16:00:53;28.38;;;16.95;;
57217;SDS011;43078;52.972;6.482;2023-03-19T16:03:27;26.80;;;15.82;;
57217;SDS011;43078;52.972;6.482;2023-03-19T16:06:01;24.65;;;14.55;;
57217;SDS011;43078;52.972;6.482;2023-03-19T16:08:30;24.95;;;14.15;;
57217;SDS011;43078;52.972;6.482;2023-03-19T16:13:56;25.55;;;14.90;;
57217;SDS011;43078;52.972;6.482;2023-03-19T16:16:23;25.88;;;15.60;;